sensor_id;sensor_type;location;lat;lon;timestamp;temperature;humidity
20726;DHT22;10524;48.132;8.518;2022-12-18T00:00:05;-9.10;99.90
20726;DHT22;10524;48.132;8.518;2022-12-18T00:02:31;-9.10;99.90
20726;DHT22;10524;48.132;8.518;2022-12-18T00:05:00;-9.10;99.90
20726;DHT22;10524;48.132;8.518;2022-12-18T00:07:25;-9.10;99.90
20726;DHT22;10524;48.132;8.518;2022-12-18T00:09:51;-9.10;99.90
20726;DHT22;10524;48.132;8.518;2022-12-18T00:12:17;-9.00;99.90
20726;DHT22;10524;48.132;8.518;2022-12-18T00:14:42;-8.90;99.90
20726;DHT22;10524;48.132;8.518;2022-12-18T00:17:08;-8.70;99.90
20726;DHT22;10524;48.132;8.518;2022-12-18T00:19:34;-8.60;99.90
20726;DHT22;10524;48.132;8.518;2022-12-18T00:21:59;-8.50;99.90
20726;DHT22;10524;48.132;8.518;2022-12-18T00:24:25;-8.40;99.90
20726;DHT22;10524;48.132;8.518;2022-12-18T00:26:51;-8.30;99.90
20726;DHT22;10524;48.132;8.518;2022-12-18T00:29:16;-8.10;99.90
20726;DHT22;10524;48.132;8.518;2022-12-18T00:31:42;-7.90;99.90
20726;DHT22;10524;48.132;8.518;2022-12-18T00:34:11;-7.80;99.90
20726;DHT22;10524;48.132;8.518;2022-12-18T00:36:38;-7.70;99.90
20726;DHT22;10524;48.132;8.518;2022-12-18T00:39:05;-7.60;99.90
20726;DHT22;10524;48.132;8.518;2022-12-18T00:41:31;-7.40;99.90
20726;DHT22;10524;48.132;8.518;2022-12-18T00:44:17;-7.30;99.90
20726;DHT22;10524;48.132;8.518;2022-12-18T00:46:44;-7.20;99.90
20726;DHT22;10524;48.132;8.518;2022-12-18T00:49:10;-7.10;99.90
20726;DHT22;10524;48.132;8.518;2022-12-18T00:51:36;-7.10;99.90
20726;DHT22;10524;48.132;8.518;2022-12-18T00:54:01;-7.00;99.90
20726;DHT22;10524;48.132;8.518;2022-12-18T00:56:27;-7.00;99.90
20726;DHT22;10524;48.132;8.518;2022-12-18T00:58:53;-7.00;99.90
20726;DHT22;10524;48.132;8.518;2022-12-18T01:01:18;-6.90;99.90
20726;DHT22;10524;48.132;8.518;2022-12-18T01:03:45;-6.80;99.90
20726;DHT22;10524;48.132;8.518;2022-12-18T01:06:13;-6.80;99.90
20726;DHT22;10524;48.132;8.518;2022-12-18T01:08:39;-6.70;99.90
20726;DHT22;10524;48.132;8.518;2022-12-18T01:11:10;-6.70;99.90
20726;DHT22;10524;48.132;8.518;2022-12-18T01:13:36;-6.70;99.90
20726;DHT22;10524;48.132;8.518;2022-12-18T01:16:01;-6.60;99.90
20726;DHT22;10524;48.132;8.518;2022-12-18T01:18:27;-6.50;99.90
20726;DHT22;10524;48.132;8.518;2022-12-18T01:20:53;-6.50;99.90
20726;DHT22;10524;48.132;8.518;2022-12-18T01:23:18;-6.50;99.90
20726;DHT22;10524;48.132;8.518;2022-12-18T01:25:44;-6.50;99.90
20726;DHT22;10524;48.132;8.518;2022-12-18T01:28:10;-6.40;99.90
20726;DHT22;10524;48.132;8.518;2022-12-18T01:30:36;-6.40;99.90
20726;DHT22;10524;48.132;8.518;2022-12-18T01:33:04;-6.40;99.90
20726;DHT22;10524;48.132;8.518;2022-12-18T01:35:30;-6.30;99.90
20726;DHT22;10524;48.132;8.518;2022-12-18T01:37:56;-6.30;99.90
20726;DHT22;10524;48.132;8.518;2022-12-18T01:40:21;-6.30;99.90
20726;DHT22;10524;48.132;8.518;2022-12-18T01:42:53;-6.20;99.90
20726;DHT22;10524;48.132;8.518;2022-12-18T01:45:25;-6.20;99.90
20726;DHT22;10524;48.132;8.518;2022-12-18T01:47:59;-6.20;99.90
20726;DHT22;10524;48.132;8.518;2022-12-18T01:55:36;-6.10;99.90
20726;DHT22;10524;48.132;8.518;2022-12-18T01:58:02;-6.10;99.90
20726;DHT22;10524;48.132;8.518;2022-12-18T02:00:29;-6.10;99.90
20726;DHT22;10524;48.132;8.518;2022-12-18T02:02:55;-6.10;99.90
20726;DHT22;10524;48.132;8.518;2022-12-18T02:10:52;-6.00;99.90
20726;DHT22;10524;48.132;8.518;2022-12-18T02:13:43;-6.00;99.90
20726;DHT22;10524;48.132;8.518;2022-12-18T02:16:24;-6.00;99.90
20726;DHT22;10524;48.132;8.518;2022-12-18T02:18:57;-6.00;99.90
20726;DHT22;10524;48.132;8.518;2022-12-18T02:21:44;-6.00;99.90
20726;DHT22;10524;48.132;8.518;2022-12-18T02:26:58;-6.00;99.90
20726;DHT22;10524;48.132;8.518;2022-12-18T02:29:48;-5.90;99.90
20726;DHT22;10524;48.132;8.518;2022-12-18T02:32:19;-5.90;99.90
20726;DHT22;10524;48.132;8.518;2022-12-18T02:34:46;-5.90;99.90
20726;DHT22;10524;48.132;8.518;2022-12-18T02:37:16;-5.90;99.90
20726;DHT22;10524;48.132;8.518;2022-12-18T02:39:44;-5.90;99.90
20726;DHT22;10524;48.132;8.518;2022-12-18T02:42:12;-5.90;99.90
20726;DHT22;10524;48.132;8.518;2022-12-18T02:44:45;-5.90;99.90
20726;DHT22;10524;48.132;8.518;2022-12-18T02:47:12;-5.90;99.90
20726;DHT22;10524;48.132;8.518;2022-12-18T03:03:03;-5.90;99.90
20726;DHT22;10524;48.132;8.518;2022-12-18T03:05:41;-5.90;99.90
20726;DHT22;10524;48.132;8.518;2022-12-18T03:08:21;-5.90;99.90
20726;DHT22;10524;48.132;8.518;2022-12-18T03:11:07;-5.90;99.90
20726;DHT22;10524;48.132;8.518;2022-12-18T03:16:00;-5.90;99.90
20726;DHT22;10524;48.132;8.518;2022-12-18T03:20:58;-5.90;99.90
20726;DHT22;10524;48.132;8.518;2022-12-18T03:23:28;-5.90;99.90
20726;DHT22;10524;48.132;8.518;2022-12-18T03:25:57;-5.90;99.90
20726;DHT22;10524;48.132;8.518;2022-12-18T03:28:24;-5.90;99.90
20726;DHT22;10524;48.132;8.518;2022-12-18T03:30:56;-5.90;99.90
20726;DHT22;10524;48.132;8.518;2022-12-18T03:33:28;-5.90;99.90
20726;DHT22;10524;48.132;8.518;2022-12-18T03:35:56;-5.90;99.90
20726;DHT22;10524;48.132;8.518;2022-12-18T03:38:22;-5.90;99.90
20726;DHT22;10524;48.132;8.518;2022-12-18T03:40:58;-5.80;99.90
20726;DHT22;10524;48.132;8.518;2022-12-18T03:46:10;-5.70;99.90
20726;DHT22;10524;48.132;8.518;2022-12-18T03:49:01;-5.70;99.90
20726;DHT22;10524;48.132;8.518;2022-12-18T03:51:42;-5.70;99.90
20726;DHT22;10524;48.132;8.518;2022-12-18T03:54:10;-5.70;99.90
20726;DHT22;10524;48.132;8.518;2022-12-18T03:56:40;-5.70;99.90
20726;DHT22;10524;48.132;8.518;2022-12-18T03:59:08;-5.70;99.90
20726;DHT22;10524;48.132;8.518;2022-12-18T04:01:42;-5.70;99.90
20726;DHT22;10524;48.132;8.518;2022-12-18T04:04:10;-5.70;99.90
20726;DHT22;10524;48.132;8.518;2022-12-18T04:06:38;-5.70;99.90
20726;DHT22;10524;48.132;8.518;2022-12-18T04:09:07;-5.70;99.90
20726;DHT22;10524;48.132;8.518;2022-12-18T04:11:33;-5.70;99.90
20726;DHT22;10524;48.132;8.518;2022-12-18T04:13:58;-5.70;99.90
20726;DHT22;10524;48.132;8.518;2022-12-18T04:16:25;-5.70;99.90
20726;DHT22;10524;48.132;8.518;2022-12-18T04:18:52;-5.70;99.90
20726;DHT22;10524;48.132;8.518;2022-12-18T04:21:19;-5.70;99.90
20726;DHT22;10524;48.132;8.518;2022-12-18T04:23:45;-5.70;99.90
20726;DHT22;10524;48.132;8.518;2022-12-18T04:26:10;-5.70;99.90
20726;DHT22;10524;48.132;8.518;2022-12-18T04:28:36;-5.70;99.90
20726;DHT22;10524;48.132;8.518;2022-12-18T04:31:02;-5.70;99.90
20726;DHT22;10524;48.132;8.518;2022-12-18T04:33:28;-5.70;99.90
20726;DHT22;10524;48.132;8.518;2022-12-18T04:35:53;-5.70;99.90
20726;DHT22;10524;48.132;8.518;2022-12-18T04:38:19;-5.70;99.90
20726;DHT22;10524;48.132;8.518;2022-12-18T04:40:45;-5.70;99.90
20726;DHT22;10524;48.132;8.518;2022-12-18T04:43:10;-5.70;99.90
20726;DHT22;10524;48.132;8.518;2022-12-18T04:45:36;-5.60;99.90
20726;DHT22;10524;48.132;8.518;2022-12-18T04:48:02;-5.70;99.90
20726;DHT22;10524;48.132;8.518;2022-12-18T04:50:29;-5.60;99.90
20726;DHT22;10524;48.132;8.518;2022-12-18T04:52:55;-5.60;99.90
20726;DHT22;10524;48.132;8.518;2022-12-18T04:55:21;-5.60;99.90
20726;DHT22;10524;48.132;8.518;2022-12-18T04:57:46;-5.60;99.90
20726;DHT22;10524;48.132;8.518;2022-12-18T05:00:12;-5.60;99.90
20726;DHT22;10524;48.132;8.518;2022-12-18T05:02:38;-5.60;99.90
20726;DHT22;10524;48.132;8.518;2022-12-18T05:05:04;-5.60;99.90
20726;DHT22;10524;48.132;8.518;2022-12-18T05:07:30;-5.50;99.90
20726;DHT22;10524;48.132;8.518;2022-12-18T05:09:56;-5.60;99.90
20726;DHT22;10524;48.132;8.518;2022-12-18T05:12:21;-5.50;99.90
20726;DHT22;10524;48.132;8.518;2022-12-18T05:14:47;-5.50;99.90
20726;DHT22;10524;48.132;8.518;2022-12-18T05:17:13;-5.50;99.90
20726;DHT22;10524;48.132;8.518;2022-12-18T05:19:38;-5.50;99.90
20726;DHT22;10524;48.132;8.518;2022-12-18T05:22:04;-5.60;99.90
20726;DHT22;10524;48.132;8.518;2022-12-18T05:24:29;-5.50;99.90
20726;DHT22;10524;48.132;8.518;2022-12-18T05:26:55;-5.50;99.90
20726;DHT22;10524;48.132;8.518;2022-12-18T05:29:21;-5.50;99.90
20726;DHT22;10524;48.132;8.518;2022-12-18T05:31:46;-5.50;99.90
20726;DHT22;10524;48.132;8.518;2022-12-18T05:34:12;-5.50;99.90
20726;DHT22;10524;48.132;8.518;2022-12-18T05:36:38;-5.50;99.90
20726;DHT22;10524;48.132;8.518;2022-12-18T05:39:03;-5.50;99.90
20726;DHT22;10524;48.132;8.518;2022-12-18T05:41:29;-5.50;99.90
20726;DHT22;10524;48.132;8.518;2022-12-18T05:43:55;-5.50;99.90
20726;DHT22;10524;48.132;8.518;2022-12-18T05:46:20;-5.50;99.90
20726;DHT22;10524;48.132;8.518;2022-12-18T05:48:46;-5.50;99.90
20726;DHT22;10524;48.132;8.518;2022-12-18T05:51:17;-5.40;99.90
20726;DHT22;10524;48.132;8.518;2022-12-18T05:53:43;-5.50;99.90
20726;DHT22;10524;48.132;8.518;2022-12-18T05:56:12;-5.40;99.90
20726;DHT22;10524;48.132;8.518;2022-12-18T05:58:38;-5.40;99.90
20726;DHT22;10524;48.132;8.518;2022-12-18T06:01:10;-5.40;99.90
20726;DHT22;10524;48.132;8.518;2022-12-18T06:03:36;-5.40;99.90
20726;DHT22;10524;48.132;8.518;2022-12-18T06:06:02;-5.40;99.90
20726;DHT22;10524;48.132;8.518;2022-12-18T06:08:28;-5.40;99.90
20726;DHT22;10524;48.132;8.518;2022-12-18T06:10:54;-5.40;99.90
20726;DHT22;10524;48.132;8.518;2022-12-18T06:13:20;-5.40;99.90
20726;DHT22;10524;48.132;8.518;2022-12-18T06:15:46;-5.40;99.90
20726;DHT22;10524;48.132;8.518;2022-12-18T06:18:11;-5.30;99.90
20726;DHT22;10524;48.132;8.518;2022-12-18T06:20:37;-5.30;99.90
20726;DHT22;10524;48.132;8.518;2022-12-18T06:23:05;-5.40;99.90
20726;DHT22;10524;48.132;8.518;2022-12-18T06:25:31;-5.40;99.90
20726;DHT22;10524;48.132;8.518;2022-12-18T06:27:57;-5.40;99.90
20726;DHT22;10524;48.132;8.518;2022-12-18T06:30:23;-5.30;99.90
20726;DHT22;10524;48.132;8.518;2022-12-18T06:32:49;-5.30;99.90
20726;DHT22;10524;48.132;8.518;2022-12-18T06:35:15;-5.30;99.90
20726;DHT22;10524;48.132;8.518;2022-12-18T06:37:40;-5.30;99.90
20726;DHT22;10524;48.132;8.518;2022-12-18T06:40:06;-5.30;99.90
20726;DHT22;10524;48.132;8.518;2022-12-18T06:42:32;-5.30;99.90
20726;DHT22;10524;48.132;8.518;2022-12-18T06:44:57;-5.30;99.90
20726;DHT22;10524;48.132;8.518;2022-12-18T06:47:23;-5.30;99.90
20726;DHT22;10524;48.132;8.518;2022-12-18T06:49:49;-5.30;99.90
20726;DHT22;10524;48.132;8.518;2022-12-18T06:52:15;-5.30;99.90
20726;DHT22;10524;48.132;8.518;2022-12-18T06:54:41;-5.40;99.90
20726;DHT22;10524;48.132;8.518;2022-12-18T06:57:07;-5.40;99.90
20726;DHT22;10524;48.132;8.518;2022-12-18T06:59:32;-5.30;99.90
20726;DHT22;10524;48.132;8.518;2022-12-18T07:01:58;-5.30;99.90
20726;DHT22;10524;48.132;8.518;2022-12-18T07:04:30;-5.30;99.90
20726;DHT22;10524;48.132;8.518;2022-12-18T07:06:56;-5.30;99.90
20726;DHT22;10524;48.132;8.518;2022-12-18T07:09:21;-5.30;99.90
20726;DHT22;10524;48.132;8.518;2022-12-18T07:11:47;-5.30;99.90
20726;DHT22;10524;48.132;8.518;2022-12-18T07:14:12;-5.30;99.90
20726;DHT22;10524;48.132;8.518;2022-12-18T07:16:38;-5.30;99.90
20726;DHT22;10524;48.132;8.518;2022-12-18T07:19:04;-5.40;99.90
20726;DHT22;10524;48.132;8.518;2022-12-18T07:21:29;-5.40;99.90
20726;DHT22;10524;48.132;8.518;2022-12-18T07:23:55;-5.40;99.90
20726;DHT22;10524;48.132;8.518;2022-12-18T07:26:21;-5.30;99.90
20726;DHT22;10524;48.132;8.518;2022-12-18T07:28:48;-5.30;99.90
20726;DHT22;10524;48.132;8.518;2022-12-18T07:31:16;-5.30;99.90
20726;DHT22;10524;48.132;8.518;2022-12-18T07:33:42;-5.20;99.90
20726;DHT22;10524;48.132;8.518;2022-12-18T07:36:10;-5.20;99.90
20726;DHT22;10524;48.132;8.518;2022-12-18T07:38:36;-5.20;99.90
20726;DHT22;10524;48.132;8.518;2022-12-18T07:41:10;-5.20;99.90
20726;DHT22;10524;48.132;8.518;2022-12-18T07:43:37;-5.30;99.90
20726;DHT22;10524;48.132;8.518;2022-12-18T07:46:03;-5.30;99.90
20726;DHT22;10524;48.132;8.518;2022-12-18T07:48:29;-5.30;99.90
20726;DHT22;10524;48.132;8.518;2022-12-18T07:50:59;-5.30;99.90
20726;DHT22;10524;48.132;8.518;2022-12-18T07:53:24;-5.20;99.90
20726;DHT22;10524;48.132;8.518;2022-12-18T07:55:55;-5.20;99.90
20726;DHT22;10524;48.132;8.518;2022-12-18T07:58:21;-5.20;99.90
20726;DHT22;10524;48.132;8.518;2022-12-18T08:00:46;-5.20;99.90
20726;DHT22;10524;48.132;8.518;2022-12-18T08:03:12;-5.10;99.90
20726;DHT22;10524;48.132;8.518;2022-12-18T08:05:38;-5.10;99.90
20726;DHT22;10524;48.132;8.518;2022-12-18T08:08:04;-5.10;99.90
20726;DHT22;10524;48.132;8.518;2022-12-18T08:10:29;-5.10;99.90
20726;DHT22;10524;48.132;8.518;2022-12-18T08:12:55;-5.10;99.90
20726;DHT22;10524;48.132;8.518;2022-12-18T08:15:20;-5.00;99.90
20726;DHT22;10524;48.132;8.518;2022-12-18T08:17:46;-5.00;99.90
20726;DHT22;10524;48.132;8.518;2022-12-18T08:20:12;-5.00;99.90
20726;DHT22;10524;48.132;8.518;2022-12-18T08:22:42;-5.00;99.90
20726;DHT22;10524;48.132;8.518;2022-12-18T08:25:08;-5.00;99.90
20726;DHT22;10524;48.132;8.518;2022-12-18T08:27:34;-4.90;99.90
20726;DHT22;10524;48.132;8.518;2022-12-18T08:30:00;-4.90;99.90
20726;DHT22;10524;48.132;8.518;2022-12-18T08:32:27;-4.90;99.90
20726;DHT22;10524;48.132;8.518;2022-12-18T08:34:53;-4.90;99.90
20726;DHT22;10524;48.132;8.518;2022-12-18T08:37:18;-4.90;99.90
20726;DHT22;10524;48.132;8.518;2022-12-18T08:39:44;-4.90;99.90
20726;DHT22;10524;48.132;8.518;2022-12-18T08:42:10;-4.80;99.90
20726;DHT22;10524;48.132;8.518;2022-12-18T08:44:54;-4.90;99.90
20726;DHT22;10524;48.132;8.518;2022-12-18T08:47:19;-4.90;99.90
20726;DHT22;10524;48.132;8.518;2022-12-18T08:49:45;-4.80;99.90
20726;DHT22;10524;48.132;8.518;2022-12-18T08:52:11;-4.70;99.90
20726;DHT22;10524;48.132;8.518;2022-12-18T08:54:36;-4.70;99.90
20726;DHT22;10524;48.132;8.518;2022-12-18T08:57:02;-4.70;99.90
20726;DHT22;10524;48.132;8.518;2022-12-18T08:59:28;-4.80;99.90
20726;DHT22;10524;48.132;8.518;2022-12-18T09:01:54;-4.80;99.90
20726;DHT22;10524;48.132;8.518;2022-12-18T09:04:20;-4.80;99.90
20726;DHT22;10524;48.132;8.518;2022-12-18T09:06:46;-4.70;99.90
20726;DHT22;10524;48.132;8.518;2022-12-18T09:09:12;-4.50;99.90
20726;DHT22;10524;48.132;8.518;2022-12-18T09:11:37;-4.60;99.90
20726;DHT22;10524;48.132;8.518;2022-12-18T09:14:03;-4.60;99.90
20726;DHT22;10524;48.132;8.518;2022-12-18T09:16:29;-4.60;99.90
20726;DHT22;10524;48.132;8.518;2022-12-18T09:18:55;-4.50;99.90
20726;DHT22;10524;48.132;8.518;2022-12-18T09:21:27;-4.40;99.90
20726;DHT22;10524;48.132;8.518;2022-12-18T09:23:54;-4.30;99.90
20726;DHT22;10524;48.132;8.518;2022-12-18T09:26:22;-4.30;99.90
20726;DHT22;10524;48.132;8.518;2022-12-18T09:28:48;-4.50;99.90
20726;DHT22;10524;48.132;8.518;2022-12-18T09:31:14;-4.60;99.90
20726;DHT22;10524;48.132;8.518;2022-12-18T09:33:41;-4.40;99.90
20726;DHT22;10524;48.132;8.518;2022-12-18T09:36:09;-4.50;99.90
20726;DHT22;10524;48.132;8.518;2022-12-18T09:38:35;-4.40;99.90
20726;DHT22;10524;48.132;8.518;2022-12-18T09:41:32;-4.30;99.90
20726;DHT22;10524;48.132;8.518;2022-12-18T09:44:03;-4.20;99.90
20726;DHT22;10524;48.132;8.518;2022-12-18T09:46:35;-4.00;99.90
20726;DHT22;10524;48.132;8.518;2022-12-18T09:49:06;-4.10;99.90
20726;DHT22;10524;48.132;8.518;2022-12-18T09:51:37;-4.10;99.90
20726;DHT22;10524;48.132;8.518;2022-12-18T09:54:11;-4.20;99.90
20726;DHT22;10524;48.132;8.518;2022-12-18T09:56:41;-4.10;99.90
20726;DHT22;10524;48.132;8.518;2022-12-18T09:59:26;-4.10;99.90
20726;DHT22;10524;48.132;8.518;2022-12-18T10:01:52;-4.10;99.90
20726;DHT22;10524;48.132;8.518;2022-12-18T10:04:18;-4.00;99.90
20726;DHT22;10524;48.132;8.518;2022-12-18T10:07:01;-4.10;99.90
20726;DHT22;10524;48.132;8.518;2022-12-18T10:09:34;-4.10;99.90
20726;DHT22;10524;48.132;8.518;2022-12-18T10:12:35;-4.20;99.90
20726;DHT22;10524;48.132;8.518;2022-12-18T10:18:14;-3.80;99.90
20726;DHT22;10524;48.132;8.518;2022-12-18T10:20:46;-3.80;99.90
20726;DHT22;10524;48.132;8.518;2022-12-18T10:26:02;-3.60;99.90
20726;DHT22;10524;48.132;8.518;2022-12-18T10:28:30;-3.50;99.90
20726;DHT22;10524;48.132;8.518;2022-12-18T10:30:57;-3.60;99.90
20726;DHT22;10524;48.132;8.518;2022-12-18T10:33:27;-3.50;99.90
20726;DHT22;10524;48.132;8.518;2022-12-18T10:35:54;-3.40;99.90
20726;DHT22;10524;48.132;8.518;2022-12-18T10:38:26;-3.40;99.90
20726;DHT22;10524;48.132;8.518;2022-12-18T10:43:35;-2.80;99.90
20726;DHT22;10524;48.132;8.518;2022-12-18T10:51:27;-2.60;99.90
20726;DHT22;10524;48.132;8.518;2022-12-18T10:54:00;-2.50;99.90
20726;DHT22;10524;48.132;8.518;2022-12-18T10:56:28;-2.80;99.90
20726;DHT22;10524;48.132;8.518;2022-12-18T10:59:00;-2.80;99.90
20726;DHT22;10524;48.132;8.518;2022-12-18T11:01:27;-2.80;99.90
20726;DHT22;10524;48.132;8.518;2022-12-18T11:06:21;-2.80;99.90
20726;DHT22;10524;48.132;8.518;2022-12-18T11:09:04;-3.00;99.90
20726;DHT22;10524;48.132;8.518;2022-12-18T11:11:31;-2.90;99.90
20726;DHT22;10524;48.132;8.518;2022-12-18T11:14:04;-2.90;99.90
20726;DHT22;10524;48.132;8.518;2022-12-18T11:16:37;-2.80;99.90
20726;DHT22;10524;48.132;8.518;2022-12-18T11:19:21;-2.70;99.90
20726;DHT22;10524;48.132;8.518;2022-12-18T11:21:50;-2.60;99.90
20726;DHT22;10524;48.132;8.518;2022-12-18T11:24:35;-2.50;99.90
20726;DHT22;10524;48.132;8.518;2022-12-18T11:27:04;-2.70;99.90
20726;DHT22;10524;48.132;8.518;2022-12-18T11:29:37;-2.70;99.90
20726;DHT22;10524;48.132;8.518;2022-12-18T11:38:21;-2.40;99.90
20726;DHT22;10524;48.132;8.518;2022-12-18T11:41:05;-2.20;99.90
20726;DHT22;10524;48.132;8.518;2022-12-18T11:43:40;-2.40;99.90
20726;DHT22;10524;48.132;8.518;2022-12-18T11:46:12;-2.30;99.90
20726;DHT22;10524;48.132;8.518;2022-12-18T11:48:45;-2.20;99.90
20726;DHT22;10524;48.132;8.518;2022-12-18T11:51:25;-2.30;99.90
20726;DHT22;10524;48.132;8.518;2022-12-18T11:53:52;-2.40;99.90
20726;DHT22;10524;48.132;8.518;2022-12-18T11:56:33;-2.40;99.90
20726;DHT22;10524;48.132;8.518;2022-12-18T12:01:46;-2.50;99.90
20726;DHT22;10524;48.132;8.518;2022-12-18T12:04:41;-2.40;99.90
20726;DHT22;10524;48.132;8.518;2022-12-18T12:07:35;-2.40;99.90
20726;DHT22;10524;48.132;8.518;2022-12-18T12:18:30;-2.20;99.90
20726;DHT22;10524;48.132;8.518;2022-12-18T12:21:14;-2.60;99.90
20726;DHT22;10524;48.132;8.518;2022-12-18T12:38:42;-2.30;99.90
20726;DHT22;10524;48.132;8.518;2022-12-18T12:41:13;-2.50;99.90
20726;DHT22;10524;48.132;8.518;2022-12-18T12:44:02;-2.50;99.90
20726;DHT22;10524;48.132;8.518;2022-12-18T12:46:32;-2.60;99.90
20726;DHT22;10524;48.132;8.518;2022-12-18T12:49:02;-2.60;99.90
20726;DHT22;10524;48.132;8.518;2022-12-18T12:51:34;-2.60;99.90
20726;DHT22;10524;48.132;8.518;2022-12-18T12:54:01;-2.70;99.90
20726;DHT22;10524;48.132;8.518;2022-12-18T12:59:12;-2.60;99.90
20726;DHT22;10524;48.132;8.518;2022-12-18T13:04:26;-2.60;99.90
20726;DHT22;10524;48.132;8.518;2022-12-18T13:09:32;-2.90;99.90
20726;DHT22;10524;48.132;8.518;2022-12-18T13:12:03;-3.00;99.90
20726;DHT22;10524;48.132;8.518;2022-12-18T13:14:48;-2.90;99.90
20726;DHT22;10524;48.132;8.518;2022-12-18T13:19:49;-2.70;99.90
20726;DHT22;10524;48.132;8.518;2022-12-18T13:22:34;-2.70;99.90
20726;DHT22;10524;48.132;8.518;2022-12-18T13:25:00;-2.70;99.90
20726;DHT22;10524;48.132;8.518;2022-12-18T13:30:44;-2.70;99.90
20726;DHT22;10524;48.132;8.518;2022-12-18T13:38:32;-2.60;99.90
20726;DHT22;10524;48.132;8.518;2022-12-18T13:41:00;-2.40;99.90
20726;DHT22;10524;48.132;8.518;2022-12-18T13:46:04;-2.80;99.90
20726;DHT22;10524;48.132;8.518;2022-12-18T13:48:33;-2.80;99.90
20726;DHT22;10524;48.132;8.518;2022-12-18T13:51:08;-2.90;99.90
20726;DHT22;10524;48.132;8.518;2022-12-18T13:53:43;-3.10;99.90
20726;DHT22;10524;48.132;8.518;2022-12-18T13:56:16;-3.00;99.90
20726;DHT22;10524;48.132;8.518;2022-12-18T13:58:42;-3.00;99.90
20726;DHT22;10524;48.132;8.518;2022-12-18T14:01:24;-3.10;99.90
20726;DHT22;10524;48.132;8.518;2022-12-18T14:03:49;-3.20;99.90
20726;DHT22;10524;48.132;8.518;2022-12-18T14:06:16;-3.00;99.90
20726;DHT22;10524;48.132;8.518;2022-12-18T14:08:43;-2.90;99.90
20726;DHT22;10524;48.132;8.518;2022-12-18T14:11:20;-2.90;99.90
20726;DHT22;10524;48.132;8.518;2022-12-18T14:13:47;-3.00;99.90
20726;DHT22;10524;48.132;8.518;2022-12-18T14:16:15;-3.00;99.90
20726;DHT22;10524;48.132;8.518;2022-12-18T14:21:23;-3.10;99.90
20726;DHT22;10524;48.132;8.518;2022-12-18T14:24:21;-3.00;99.90
20726;DHT22;10524;48.132;8.518;2022-12-18T14:26:48;-3.10;99.90
20726;DHT22;10524;48.132;8.518;2022-12-18T14:29:26;-3.20;99.90
20726;DHT22;10524;48.132;8.518;2022-12-18T14:32:19;-3.20;99.90
20726;DHT22;10524;48.132;8.518;2022-12-18T14:34:50;-3.20;99.90
20726;DHT22;10524;48.132;8.518;2022-12-18T14:37:21;-3.20;99.90
20726;DHT22;10524;48.132;8.518;2022-12-18T14:39:58;-3.30;99.90
20726;DHT22;10524;48.132;8.518;2022-12-18T14:42:26;-3.40;99.90
20726;DHT22;10524;48.132;8.518;2022-12-18T14:45:32;-3.40;99.90
20726;DHT22;10524;48.132;8.518;2022-12-18T14:48:05;-3.40;99.90
20726;DHT22;10524;48.132;8.518;2022-12-18T14:50:31;-3.40;99.90
20726;DHT22;10524;48.132;8.518;2022-12-18T14:52:57;-3.50;99.90
20726;DHT22;10524;48.132;8.518;2022-12-18T14:55:23;-3.60;99.90
20726;DHT22;10524;48.132;8.518;2022-12-18T14:57:53;-3.70;99.90
20726;DHT22;10524;48.132;8.518;2022-12-18T15:00:22;-3.80;99.90
20726;DHT22;10524;48.132;8.518;2022-12-18T15:02:54;-3.80;99.90
20726;DHT22;10524;48.132;8.518;2022-12-18T15:05:28;-3.90;99.90
20726;DHT22;10524;48.132;8.518;2022-12-18T15:07:57;-3.90;99.90
20726;DHT22;10524;48.132;8.518;2022-12-18T15:10:32;-4.00;99.90
20726;DHT22;10524;48.132;8.518;2022-12-18T15:23:24;-4.10;99.90
20726;DHT22;10524;48.132;8.518;2022-12-18T15:26:06;-4.20;99.90
20726;DHT22;10524;48.132;8.518;2022-12-18T15:28:50;-4.20;99.90
20726;DHT22;10524;48.132;8.518;2022-12-18T15:31:33;-4.20;99.90
20726;DHT22;10524;48.132;8.518;2022-12-18T15:34:04;-4.20;99.90
20726;DHT22;10524;48.132;8.518;2022-12-18T15:36:30;-4.20;99.90
20726;DHT22;10524;48.132;8.518;2022-12-18T15:38:57;-4.30;99.90
20726;DHT22;10524;48.132;8.518;2022-12-18T15:41:23;-4.30;99.90
20726;DHT22;10524;48.132;8.518;2022-12-18T15:43:52;-4.30;99.90
20726;DHT22;10524;48.132;8.518;2022-12-18T15:46:23;-4.30;99.90
20726;DHT22;10524;48.132;8.518;2022-12-18T15:48:51;-4.40;99.90
20726;DHT22;10524;48.132;8.518;2022-12-18T15:51:19;-4.40;99.90
20726;DHT22;10524;48.132;8.518;2022-12-18T15:53:47;-4.30;99.90
20726;DHT22;10524;48.132;8.518;2022-12-18T15:56:15;-4.30;99.90
20726;DHT22;10524;48.132;8.518;2022-12-18T15:59:00;-4.30;99.90
20726;DHT22;10524;48.132;8.518;2022-12-18T16:01:27;-4.30;99.90
20726;DHT22;10524;48.132;8.518;2022-12-18T16:03:54;-4.20;99.90
20726;DHT22;10524;48.132;8.518;2022-12-18T16:06:21;-4.20;99.90
20726;DHT22;10524;48.132;8.518;2022-12-18T16:08:46;-4.20;99.90
20726;DHT22;10524;48.132;8.518;2022-12-18T16:11:32;-4.20;99.90
20726;DHT22;10524;48.132;8.518;2022-12-18T16:16:44;-4.20;99.90
20726;DHT22;10524;48.132;8.518;2022-12-18T16:19:10;-4.10;99.90
20726;DHT22;10524;48.132;8.518;2022-12-18T16:21:35;-4.10;99.90
20726;DHT22;10524;48.132;8.518;2022-12-18T16:24:01;-4.10;99.90
20726;DHT22;10524;48.132;8.518;2022-12-18T16:26:27;-4.10;99.90
20726;DHT22;10524;48.132;8.518;2022-12-18T16:28:52;-4.10;99.90
20726;DHT22;10524;48.132;8.518;2022-12-18T16:31:18;-4.10;99.90
20726;DHT22;10524;48.132;8.518;2022-12-18T16:33:44;-4.10;99.90
20726;DHT22;10524;48.132;8.518;2022-12-18T16:36:10;-4.10;99.90
20726;DHT22;10524;48.132;8.518;2022-12-18T16:38:35;-4.10;99.90
20726;DHT22;10524;48.132;8.518;2022-12-18T16:41:01;-4.20;99.90
20726;DHT22;10524;48.132;8.518;2022-12-18T16:43:45;-4.20;99.90
20726;DHT22;10524;48.132;8.518;2022-12-18T16:46:11;-4.10;99.90
20726;DHT22;10524;48.132;8.518;2022-12-18T16:48:36;-4.10;99.90
20726;DHT22;10524;48.132;8.518;2022-12-18T16:51:04;-4.10;99.90
20726;DHT22;10524;48.132;8.518;2022-12-18T16:53:31;-4.10;99.90
20726;DHT22;10524;48.132;8.518;2022-12-18T16:55:58;-4.20;99.90
20726;DHT22;10524;48.132;8.518;2022-12-18T16:58:23;-4.10;99.90
20726;DHT22;10524;48.132;8.518;2022-12-18T17:00:49;-4.10;99.90
20726;DHT22;10524;48.132;8.518;2022-12-18T17:03:14;-4.10;99.90
20726;DHT22;10524;48.132;8.518;2022-12-18T17:05:40;-4.10;99.90
20726;DHT22;10524;48.132;8.518;2022-12-18T17:08:06;-4.10;99.90
20726;DHT22;10524;48.132;8.518;2022-12-18T17:10:34;-4.10;99.90
20726;DHT22;10524;48.132;8.518;2022-12-18T17:13:00;-4.10;99.90
20726;DHT22;10524;48.132;8.518;2022-12-18T17:15:26;-4.10;99.90
20726;DHT22;10524;48.132;8.518;2022-12-18T17:17:51;-4.10;99.90
20726;DHT22;10524;48.132;8.518;2022-12-18T17:20:17;-4.10;99.90
20726;DHT22;10524;48.132;8.518;2022-12-18T17:22:43;-4.10;99.90
20726;DHT22;10524;48.132;8.518;2022-12-18T17:25:09;-4.00;99.90
20726;DHT22;10524;48.132;8.518;2022-12-18T17:27:35;-4.00;99.90
20726;DHT22;10524;48.132;8.518;2022-12-18T17:30:01;-4.00;99.90
20726;DHT22;10524;48.132;8.518;2022-12-18T17:32:26;-4.00;99.90
20726;DHT22;10524;48.132;8.518;2022-12-18T17:34:52;-4.00;99.90
20726;DHT22;10524;48.132;8.518;2022-12-18T17:37:18;-4.00;99.90
20726;DHT22;10524;48.132;8.518;2022-12-18T17:39:43;-4.00;99.90
20726;DHT22;10524;48.132;8.518;2022-12-18T17:42:09;-3.90;99.90